createdAt,value
2023-12-04T00:01:54.944Z,62.96
2023-12-04T00:04:21.714Z,63.14
2023-12-04T00:06:48.500Z,62.85
2023-12-04T00:09:15.281Z,63.11
2023-12-04T00:11:41.951Z,62.44
2023-12-04T00:14:08.606Z,62.72
2023-12-04T00:16:35.407Z,63.21
2023-12-04T00:19:02.276Z,62.57
2023-12-04T00:21:28.993Z,61.06
2023-12-04T00:23:55.706Z,62.51
2023-12-04T00:26:22.341Z,61.81
2023-12-04T00:28:48.975Z,61.83
2023-12-04T00:31:15.655Z,61.55
2023-12-04T00:33:42.516Z,62.95
2023-12-04T00:36:09.241Z,62.54
2023-12-04T00:38:35.985Z,62.06
2023-12-04T00:41:02.676Z,62.78
2023-12-04T00:43:29.384Z,63.39
2023-12-04T00:45:56.080Z,62.34
2023-12-04T00:48:22.829Z,61.80
2023-12-04T00:50:49.768Z,62.84
2023-12-04T00:53:16.520Z,62.12
2023-12-04T00:55:43.209Z,62.63
2023-12-04T00:58:09.930Z,62.18
2023-12-04T01:00:36.781Z,61.27
2023-12-04T01:03:03.556Z,61.79
2023-12-04T01:05:30.198Z,61.75
2023-12-04T01:07:56.930Z,63.70
2023-12-04T01:10:23.578Z,64.77
2023-12-04T01:12:50.361Z,64.34
2023-12-04T01:15:17.069Z,63.92
2023-12-04T01:17:43.946Z,63.72
2023-12-04T01:20:10.682Z,62.78
2023-12-04T01:22:37.441Z,61.76
2023-12-04T01:25:04.113Z,61.28
2023-12-04T01:27:30.823Z,62.39
2023-12-04T01:29:57.548Z,62.51
2023-12-04T01:32:24.263Z,62.73
2023-12-04T01:34:50.887Z,62.22
2023-12-04T01:37:17.650Z,61.33
2023-12-04T01:39:44.303Z,62.88
2023-12-04T01:42:11.039Z,62.59
2023-12-04T01:44:37.730Z,62.54
2023-12-04T01:47:04.546Z,62.44
2023-12-04T01:49:31.380Z,63.61
2023-12-04T01:51:58.232Z,63.06
2023-12-04T01:54:24.972Z,63.11
2023-12-04T01:56:52.084Z,63.38
2023-12-04T01:59:18.868Z,63.88
2023-12-04T02:01:45.551Z,62.58
2023-12-04T02:04:12.343Z,62.57
2023-12-04T02:06:39.193Z,63.28
2023-12-04T02:09:06.025Z,62.61
2023-12-04T02:11:32.642Z,62.71
2023-12-04T02:13:59.515Z,63.08
2023-12-04T02:16:26.201Z,62.59
2023-12-04T02:18:52.929Z,62.32
2023-12-04T02:21:19.738Z,62.42
2023-12-04T02:23:46.345Z,61.29
2023-12-04T02:26:12.961Z,61.69
2023-12-04T02:28:39.733Z,60.74
2023-12-04T02:31:06.521Z,62.18
2023-12-04T02:33:33.265Z,62.10
2023-12-04T02:36:00.044Z,61.98
2023-12-04T02:38:26.649Z,61.46
2023-12-04T02:40:53.248Z,61.80
2023-12-04T02:43:20.007Z,61.48
2023-12-04T02:45:46.652Z,61.15
2023-12-04T02:48:13.376Z,62.27
2023-12-04T02:50:40.083Z,62.89
2023-12-04T02:53:06.690Z,62.19
2023-12-04T02:55:33.288Z,62.39
2023-12-04T02:58:00.020Z,61.53
2023-12-04T03:00:26.785Z,60.70
2023-12-04T03:02:54.320Z,61.22
2023-12-04T03:05:21.002Z,61.21
2023-12-04T03:07:47.669Z,61.64
2023-12-04T03:10:14.430Z,60.81
2023-12-04T03:12:41.178Z,61.00
2023-12-04T03:15:07.874Z,61.04
2023-12-04T03:17:34.653Z,61.13
2023-12-04T03:20:01.400Z,61.22
2023-12-04T03:22:28.018Z,60.90
2023-12-04T03:24:54.879Z,60.42
2023-12-04T03:27:21.600Z,61.07
2023-12-04T03:29:48.225Z,60.56
2023-12-04T03:32:14.910Z,60.91
2023-12-04T03:34:41.751Z,59.96
2023-12-04T03:37:08.534Z,60.68
2023-12-04T03:39:35.433Z,61.25
2023-12-04T03:42:02.156Z,61.61
2023-12-04T03:44:28.881Z,61.32
2023-12-04T03:46:55.503Z,60.95
2023-12-04T03:49:22.317Z,60.93
2023-12-04T03:51:49.234Z,61.29
2023-12-04T03:54:16.099Z,61.77
2023-12-04T03:56:42.876Z,61.93
2023-12-04T03:59:09.602Z,61.04
2023-12-04T04:01:36.275Z,61.31
2023-12-04T04:04:03.054Z,61.03
2023-12-04T04:06:29.970Z,60.91
2023-12-04T04:08:56.716Z,60.44
2023-12-04T04:11:23.414Z,60.23
2023-12-04T04:13:50.100Z,60.03
2023-12-04T04:16:16.967Z,59.94
2023-12-04T04:18:43.861Z,59.55
2023-12-04T04:21:10.570Z,59.24
2023-12-04T04:23:37.306Z,59.89
2023-12-04T04:26:04.035Z,61.58
2023-12-04T04:28:30.774Z,61.47
2023-12-04T04:30:57.413Z,61.09
2023-12-04T04:33:24.133Z,60.36
2023-12-04T04:35:50.822Z,60.38
2023-12-04T04:38:17.636Z,60.11
2023-12-04T04:40:44.554Z,60.67
2023-12-04T04:43:11.432Z,60.78
2023-12-04T04:45:38.182Z,60.27
2023-12-04T04:48:04.956Z,59.79
2023-12-04T04:50:31.696Z,59.95
2023-12-04T04:52:58.329Z,60.89
2023-12-04T04:55:46.506Z,61.10
2023-12-04T04:58:11.691Z,62.32
2023-12-04T05:00:38.435Z,62.30
2023-12-04T05:03:05.284Z,61.31
2023-12-04T05:05:31.928Z,61.97
2023-12-04T05:07:58.606Z,62.64
2023-12-04T05:10:25.247Z,63.46
2023-12-04T05:12:52.330Z,63.50
2023-12-04T05:15:19.136Z,62.45
2023-12-04T05:17:46.029Z,62.46
2023-12-04T05:20:12.694Z,60.90
2023-12-04T05:22:39.539Z,61.17
2023-12-04T05:25:06.237Z,61.55
2023-12-04T05:27:33.172Z,61.88
2023-12-04T05:29:59.918Z,62.09
2023-12-04T05:32:26.624Z,60.99
2023-12-04T05:34:53.718Z,61.10
2023-12-04T05:37:20.590Z,60.97
2023-12-04T05:39:47.444Z,60.28
2023-12-04T05:42:14.090Z,60.78
2023-12-04T05:44:40.781Z,60.69
2023-12-04T05:47:07.412Z,61.96
2023-12-04T05:49:34.219Z,61.54
2023-12-04T05:52:01.098Z,61.21
2023-12-04T05:54:27.817Z,60.90
2023-12-04T05:56:54.457Z,60.53
2023-12-04T05:59:21.242Z,60.77
2023-12-04T06:01:48.039Z,60.60
2023-12-04T06:04:14.744Z,60.54
2023-12-04T06:06:41.555Z,62.63
2023-12-04T06:09:08.194Z,62.55
2023-12-04T06:11:35.013Z,62.32
2023-12-04T06:14:01.767Z,61.35
2023-12-04T06:16:28.389Z,61.20
2023-12-04T06:18:55.305Z,61.66
2023-12-04T06:21:22.278Z,61.64
2023-12-04T06:23:48.953Z,61.73
2023-12-04T06:26:15.672Z,62.09
2023-12-04T06:28:42.399Z,61.97
2023-12-04T06:31:09.089Z,62.17
2023-12-04T06:33:36.234Z,62.20
2023-12-04T06:36:02.991Z,60.90
2023-12-04T06:38:29.713Z,61.28
2023-12-04T06:40:56.510Z,61.56
2023-12-04T06:43:23.281Z,61.14
2023-12-04T06:45:50.116Z,61.65
2023-12-04T06:48:16.799Z,61.29
2023-12-04T06:50:43.571Z,61.62
2023-12-04T06:53:10.201Z,61.37
2023-12-04T06:55:36.841Z,61.00
2023-12-04T06:58:03.768Z,61.34
2023-12-04T07:00:30.591Z,61.43
2023-12-04T07:02:57.354Z,61.36
2023-12-04T07:05:24.093Z,62.17
2023-12-04T07:07:50.845Z,63.19
2023-12-04T07:10:17.670Z,62.69
2023-12-04T07:12:44.493Z,61.99
2023-12-04T07:15:11.316Z,61.63
2023-12-04T07:17:37.953Z,61.86
2023-12-04T07:20:04.718Z,61.29
2023-12-04T07:22:31.362Z,61.36
2023-12-04T07:25:04.948Z,60.78
2023-12-04T07:27:31.695Z,60.89
2023-12-04T07:29:58.376Z,60.68
2023-12-04T07:32:25.288Z,61.75
2023-12-04T07:34:52.015Z,61.20
2023-12-04T07:37:18.772Z,60.99
2023-12-04T07:39:45.673Z,60.98
2023-12-04T07:42:13.576Z,60.67
2023-12-04T07:44:40.264Z,60.49
2023-12-04T07:47:06.956Z,60.62
2023-12-04T07:49:33.846Z,59.96
2023-12-04T07:52:00.680Z,60.28
2023-12-04T07:54:28.054Z,59.93
2023-12-04T07:56:55.807Z,58.37
2023-12-04T07:59:22.506Z,58.10
2023-12-04T08:01:49.216Z,57.64
2023-12-04T08:04:15.968Z,58.26
2023-12-04T08:06:43.066Z,58.68
2023-12-04T08:09:09.807Z,58.08
2023-12-04T08:11:36.502Z,58.64
2023-12-04T08:14:03.429Z,57.82
2023-12-04T08:16:30.274Z,56.92
2023-12-04T08:18:57.147Z,56.41
2023-12-04T08:21:23.840Z,56.17
2023-12-04T08:23:50.505Z,56.19
2023-12-04T08:26:17.205Z,55.92
2023-12-04T08:28:43.885Z,54.90
2023-12-04T08:31:10.605Z,55.12
2023-12-04T08:33:37.303Z,54.35
2023-12-04T08:36:04.187Z,53.99
2023-12-04T08:38:30.981Z,55.04
2023-12-04T08:40:57.698Z,54.46
2023-12-04T08:43:24.385Z,54.31
2023-12-04T08:45:51.239Z,54.72
2023-12-04T08:48:17.954Z,53.62
2023-12-04T08:50:45.021Z,53.79
2023-12-04T08:53:12.051Z,53.73
2023-12-04T08:55:38.773Z,53.15
2023-12-04T08:58:05.569Z,53.86
2023-12-04T09:00:32.407Z,53.51
2023-12-04T09:03:08.196Z,52.69
2023-12-04T09:05:37.416Z,52.81
2023-12-04T09:10:44.987Z,53.15
2023-12-04T09:13:20.306Z,53.16
2023-12-04T09:15:47.045Z,52.69
2023-12-04T09:18:14.276Z,52.70
2023-12-04T09:20:41.220Z,51.80
2023-12-04T09:23:09.495Z,52.28
2023-12-04T09:25:36.379Z,51.59
2023-12-04T09:28:03.130Z,51.33
2023-12-04T09:30:29.845Z,51.53
2023-12-04T09:32:56.790Z,50.94
2023-12-04T09:35:23.617Z,51.65
2023-12-04T09:37:50.234Z,51.17
2023-12-04T09:40:16.831Z,49.85
2023-12-04T09:42:43.607Z,51.10
2023-12-04T09:45:10.291Z,50.66
2023-12-04T09:47:37.093Z,50.84
2023-12-04T09:50:04.062Z,49.78
2023-12-04T09:52:30.919Z,49.46
2023-12-04T09:54:57.803Z,49.94
2023-12-04T09:57:24.494Z,49.46
2023-12-04T09:59:51.163Z,49.28
2023-12-04T10:02:17.852Z,49.21
2023-12-04T10:04:44.572Z,48.74
2023-12-04T10:07:11.237Z,48.66
2023-12-04T10:09:37.954Z,48.20
2023-12-04T10:12:04.687Z,48.79
2023-12-04T10:14:31.372Z,48.36
2023-12-04T10:16:58.015Z,48.25
2023-12-04T10:19:24.777Z,48.16
2023-12-04T10:21:51.506Z,47.57
2023-12-04T10:24:18.282Z,45.98
2023-12-04T10:26:45.996Z,46.94
2023-12-04T10:29:13.869Z,47.36
2023-12-04T10:31:40.519Z,46.65
2023-12-04T10:34:07.294Z,47.34
2023-12-04T10:36:34.040Z,46.14
2023-12-04T10:39:00.681Z,45.60
2023-12-04T10:41:27.875Z,45.71
2023-12-04T10:44:01.163Z,45.13
2023-12-04T10:46:31.589Z,46.90
2023-12-04T10:48:58.685Z,46.66
2023-12-04T10:51:25.914Z,44.78
2023-12-04T10:53:53.504Z,46.92
2023-12-04T10:56:20.401Z,45.69
2023-12-04T10:58:47.315Z,47.15
2023-12-04T11:01:14.542Z,46.77
2023-12-04T11:03:41.550Z,46.81
2023-12-04T11:06:08.688Z,45.41
2023-12-04T11:08:35.861Z,44.97
2023-12-04T11:11:02.859Z,45.46
2023-12-04T11:13:29.838Z,46.25
2023-12-04T11:15:57.093Z,48.48
2023-12-04T11:18:24.221Z,47.98
2023-12-04T11:20:51.230Z,48.51
2023-12-04T11:23:18.308Z,48.22
2023-12-04T11:25:45.157Z,49.58
2023-12-04T11:28:12.088Z,49.50
2023-12-04T11:30:39.158Z,49.03
2023-12-04T11:33:06.210Z,49.14
2023-12-04T11:35:33.086Z,49.73
2023-12-04T11:38:00.622Z,51.93
2023-12-04T11:40:27.731Z,51.55
2023-12-04T11:42:54.874Z,50.43
2023-12-04T11:45:22.142Z,49.89
2023-12-04T11:47:49.283Z,50.12
2023-12-04T11:50:16.260Z,48.98
2023-12-04T11:52:43.307Z,50.29
2023-12-04T11:55:10.109Z,49.57
2023-12-04T11:57:36.936Z,53.07
2023-12-04T12:00:04.088Z,52.90
2023-12-04T12:03:13.845Z,51.54
2023-12-04T12:05:17.833Z,51.41
2023-12-04T12:07:44.906Z,50.33
2023-12-04T12:10:14.384Z,50.16
2023-12-04T12:12:41.524Z,50.44
2023-12-04T12:15:08.565Z,50.42
2023-12-04T12:17:35.469Z,50.70
2023-12-04T12:20:02.379Z,50.69
2023-12-04T12:22:29.481Z,49.88
2023-12-04T12:24:56.740Z,50.40
2023-12-04T12:27:24.344Z,50.87
2023-12-04T12:29:51.342Z,50.62
2023-12-04T12:32:18.175Z,52.14
2023-12-04T12:34:45.232Z,51.95
2023-12-04T12:37:12.259Z,51.46
2023-12-04T12:39:39.171Z,51.68
2023-12-04T12:42:06.241Z,50.97
2023-12-04T12:44:33.390Z,50.82
2023-12-04T12:47:00.448Z,50.59
2023-12-04T12:49:32.887Z,51.20
2023-12-04T12:52:03.896Z,51.99
2023-12-04T12:54:31.123Z,53.44
2023-12-04T12:56:58.104Z,54.03
2023-12-04T12:59:25.253Z,53.75
2023-12-04T13:01:52.392Z,54.16
2023-12-04T13:04:19.697Z,53.99
2023-12-04T13:06:46.894Z,53.15
2023-12-04T13:09:13.916Z,51.34
2023-12-04T13:11:40.645Z,53.44
2023-12-04T13:14:07.800Z,54.71
2023-12-04T13:16:34.751Z,53.65
2023-12-04T13:19:01.845Z,53.24
2023-12-04T13:21:28.740Z,53.83
2023-12-04T13:23:55.750Z,54.45
2023-12-04T13:26:22.828Z,54.71
2023-12-04T13:28:49.825Z,53.16
2023-12-04T13:31:16.944Z,52.51
2023-12-04T13:33:43.888Z,52.31
2023-12-04T13:36:10.535Z,52.99
2023-12-04T13:38:38.204Z,51.49
2023-12-04T13:41:05.004Z,52.19
2023-12-04T13:43:31.665Z,52.39
2023-12-04T13:45:58.403Z,52.30
2023-12-04T13:48:25.170Z,51.36
2023-12-04T13:50:51.875Z,51.23
2023-12-04T13:53:18.563Z,51.05
2023-12-04T13:55:45.235Z,51.55
2023-12-04T13:58:12.021Z,51.20
2023-12-04T14:00:38.958Z,50.29
2023-12-04T14:03:06.502Z,51.77
2023-12-04T14:05:33.849Z,50.90
2023-12-04T14:08:01.658Z,51.02
2023-12-04T14:10:28.628Z,51.16
2023-12-04T14:12:55.613Z,50.59
2023-12-04T14:15:23.148Z,51.23
2023-12-04T14:17:49.862Z,50.57
2023-12-04T14:20:16.511Z,51.66
2023-12-04T14:22:43.291Z,51.18
2023-12-04T14:25:10.036Z,50.54
2023-12-04T14:27:36.722Z,51.69
2023-12-04T14:30:03.468Z,51.54
2023-12-04T14:32:34.771Z,51.14
2023-12-04T14:35:08.491Z,52.00
2023-12-04T14:37:35.191Z,51.32
2023-12-04T14:40:01.897Z,51.94
2023-12-04T14:42:28.586Z,52.11
2023-12-04T14:44:55.206Z,52.67
2023-12-04T14:47:21.829Z,52.42
2023-12-04T14:49:48.513Z,51.76
2023-12-04T14:52:15.278Z,51.76
2023-12-04T14:54:41.884Z,52.03
2023-12-04T14:57:08.585Z,52.56
2023-12-04T14:59:35.233Z,52.12
2023-12-04T15:02:02.004Z,51.88
2023-12-04T15:04:28.857Z,52.72
2023-12-04T15:06:55.581Z,52.07
2023-12-04T15:09:24.162Z,52.35
2023-12-04T15:11:50.918Z,52.39
2023-12-04T15:14:17.564Z,52.57
2023-12-04T15:16:44.313Z,52.73
2023-12-04T15:19:11.169Z,52.99
2023-12-04T15:21:37.912Z,53.60
2023-12-04T15:24:04.686Z,52.96
2023-12-04T15:26:31.423Z,53.70
2023-12-04T15:28:58.043Z,54.30
2023-12-04T15:31:24.680Z,53.72
2023-12-04T15:33:51.421Z,53.83
2023-12-04T15:36:18.164Z,53.67
2023-12-04T15:38:44.836Z,53.41
2023-12-04T15:41:11.553Z,53.24
2023-12-04T15:43:38.384Z,53.13
2023-12-04T15:46:05.117Z,53.78
2023-12-04T15:48:31.905Z,53.95
2023-12-04T15:50:58.652Z,53.90
2023-12-04T15:53:25.280Z,54.10
2023-12-04T15:55:52.056Z,54.04
2023-12-04T15:58:18.681Z,54.00
2023-12-04T16:00:45.406Z,54.47
2023-12-04T16:03:12.253Z,54.35
2023-12-04T16:05:39.076Z,54.14
2023-12-04T16:08:05.715Z,54.42
2023-12-04T16:10:32.835Z,54.30
2023-12-04T16:12:59.551Z,54.70
2023-12-04T16:15:26.492Z,54.02
2023-12-04T16:17:53.232Z,54.78
2023-12-04T16:20:19.993Z,54.80
2023-12-04T16:22:46.690Z,54.09
2023-12-04T16:25:13.421Z,54.35
2023-12-04T16:27:40.203Z,55.20
2023-12-04T16:30:06.910Z,54.61
2023-12-04T16:32:33.623Z,54.19
2023-12-04T16:35:02.189Z,55.26
2023-12-04T16:37:29.216Z,55.17
2023-12-04T16:39:55.880Z,55.01
2023-12-04T16:42:22.729Z,55.36
2023-12-04T16:44:49.372Z,54.93
2023-12-04T16:47:16.139Z,55.17
2023-12-04T16:49:42.902Z,55.81
2023-12-04T16:52:09.562Z,55.15
2023-12-04T16:54:36.281Z,55.30
2023-12-04T16:57:02.929Z,55.22
2023-12-04T16:59:29.642Z,54.68
2023-12-04T17:01:56.341Z,54.20
2023-12-04T17:04:23.175Z,53.97
2023-12-04T17:06:50.083Z,54.31
2023-12-04T17:09:16.890Z,54.81
2023-12-04T17:11:43.631Z,54.49
2023-12-04T17:14:10.343Z,54.33
2023-12-04T17:16:37.015Z,54.78
2023-12-04T17:19:03.718Z,54.80
2023-12-04T17:21:30.487Z,53.85
2023-12-04T17:23:57.176Z,53.74
2023-12-04T17:26:23.783Z,54.78
2023-12-04T17:28:50.406Z,54.64
2023-12-04T17:31:17.065Z,54.65
2023-12-04T17:33:43.841Z,54.38
2023-12-04T17:36:10.524Z,53.84
2023-12-04T17:38:37.285Z,54.45
2023-12-04T17:41:03.892Z,53.97
2023-12-04T17:43:30.534Z,54.84
2023-12-04T17:45:58.225Z,54.45
2023-12-04T17:48:24.879Z,54.47
2023-12-04T17:50:51.526Z,54.85
2023-12-04T17:53:18.197Z,54.67
2023-12-04T17:55:44.802Z,53.78
2023-12-04T17:58:11.392Z,54.69
2023-12-04T18:00:38.149Z,54.19
2023-12-04T18:03:06.468Z,54.40
2023-12-04T18:05:34.542Z,54.11
2023-12-04T18:08:01.271Z,53.43
2023-12-04T18:10:27.924Z,53.71
2023-12-04T18:12:54.655Z,54.42
2023-12-04T18:15:21.331Z,55.15
2023-12-04T18:17:48.135Z,55.56
2023-12-04T18:20:15.017Z,54.15
2023-12-04T18:22:41.832Z,53.97
2023-12-04T18:25:08.451Z,54.82
2023-12-04T18:27:35.241Z,55.11
2023-12-04T18:30:01.986Z,54.00
2023-12-04T18:32:28.751Z,53.80
2023-12-04T18:34:55.456Z,54.07
2023-12-04T18:37:22.225Z,54.15
2023-12-04T18:39:49.010Z,53.82
2023-12-04T18:42:15.687Z,54.26
2023-12-04T18:44:42.478Z,53.32
2023-12-04T18:47:09.090Z,53.12
2023-12-04T18:49:35.764Z,53.64
2023-12-04T18:52:02.498Z,54.59
2023-12-04T18:54:29.142Z,53.61
2023-12-04T18:56:55.953Z,55.31
2023-12-04T18:59:22.627Z,55.83
2023-12-04T19:01:49.250Z,55.95
2023-12-04T19:04:16.025Z,56.10
2023-12-04T19:06:42.761Z,56.41
2023-12-04T19:09:09.578Z,57.04
2023-12-04T19:11:36.290Z,57.40
2023-12-04T19:14:03.040Z,56.36
2023-12-04T19:16:29.662Z,55.46
2023-12-04T19:18:56.388Z,55.60
2023-12-04T19:21:23.442Z,55.62
2023-12-04T19:23:50.163Z,55.45
2023-12-04T19:26:16.797Z,55.20
2023-12-04T19:28:43.462Z,55.10
2023-12-04T19:31:10.093Z,54.78
2023-12-04T19:33:36.865Z,54.86
2023-12-04T19:36:03.649Z,53.95
2023-12-04T19:38:30.273Z,53.93
2023-12-04T19:40:56.926Z,54.53
2023-12-04T19:43:23.644Z,54.61
2023-12-04T19:45:50.369Z,54.29
2023-12-04T19:48:17.182Z,54.60
2023-12-04T19:50:43.926Z,54.90
2023-12-04T19:53:10.639Z,54.83
2023-12-04T19:55:37.322Z,54.91
2023-12-04T19:58:04.036Z,54.78
2023-12-04T20:00:30.821Z,55.45
2023-12-04T20:02:57.590Z,55.46
2023-12-04T20:05:24.431Z,56.45
2023-12-04T20:07:51.214Z,56.73
2023-12-04T20:10:19.770Z,56.06
2023-12-04T20:12:46.622Z,55.85
2023-12-04T20:15:13.379Z,54.96
2023-12-04T20:17:40.035Z,55.31
2023-12-04T20:20:06.716Z,54.70
2023-12-04T20:22:33.411Z,54.72
2023-12-04T20:25:00.039Z,54.72
2023-12-04T20:27:26.814Z,55.00
2023-12-04T20:29:53.483Z,54.69
2023-12-04T20:32:20.087Z,54.54
2023-12-04T20:34:46.836Z,54.43
2023-12-04T20:37:13.480Z,54.14
2023-12-04T20:39:40.145Z,55.17
2023-12-04T20:42:06.884Z,56.04
2023-12-04T20:44:33.490Z,55.36
2023-12-04T20:47:00.216Z,54.72
2023-12-04T20:49:27.068Z,54.17
2023-12-04T20:51:53.778Z,53.97
2023-12-04T20:54:20.462Z,54.07
2023-12-04T20:56:47.274Z,53.63
2023-12-04T20:59:13.885Z,53.78
2023-12-04T21:01:40.557Z,54.29
2023-12-04T21:04:07.398Z,54.13
2023-12-04T21:06:34.131Z,54.49
2023-12-04T21:09:01.027Z,54.12
2023-12-04T21:11:27.898Z,54.00
2023-12-04T21:13:54.498Z,54.22
2023-12-04T21:16:21.102Z,54.49
2023-12-04T21:18:47.865Z,54.57
2023-12-04T21:21:14.587Z,54.29
2023-12-04T21:23:41.235Z,54.94
2023-12-04T21:26:07.976Z,54.49
2023-12-04T21:28:34.582Z,55.06
2023-12-04T21:31:01.259Z,54.83
2023-12-04T21:33:28.051Z,55.38
2023-12-04T21:35:54.796Z,54.88
2023-12-04T21:38:21.687Z,55.36
2023-12-04T21:40:48.413Z,54.91
2023-12-04T21:43:15.038Z,55.41
2023-12-04T21:45:41.709Z,55.27
2023-12-04T21:48:08.643Z,55.23
2023-12-04T21:50:35.389Z,55.12
2023-12-04T21:53:02.008Z,55.65
2023-12-04T21:55:28.681Z,55.79
2023-12-04T21:57:55.629Z,56.09
2023-12-04T22:00:22.371Z,55.56
2023-12-04T22:02:49.089Z,55.74
2023-12-04T22:05:15.860Z,55.92
2023-12-04T22:07:42.606Z,56.11
2023-12-04T22:10:09.371Z,56.08
2023-12-04T22:12:36.037Z,56.29
2023-12-04T22:15:02.645Z,56.54
2023-12-04T22:17:29.308Z,56.50
2023-12-04T22:19:55.954Z,56.56
2023-12-04T22:22:22.711Z,56.51
2023-12-04T22:24:49.429Z,56.46
2023-12-04T22:27:16.086Z,56.16
2023-12-04T22:29:42.696Z,56.31
2023-12-04T22:32:09.466Z,56.49
2023-12-04T22:34:36.100Z,56.32
2023-12-04T22:37:02.790Z,56.65
2023-12-04T22:39:29.483Z,56.08
2023-12-04T22:41:56.122Z,55.93
2023-12-04T22:44:22.740Z,56.01
2023-12-04T22:46:49.407Z,56.06
2023-12-04T22:49:16.109Z,56.65
2023-12-04T22:51:42.785Z,56.48
2023-12-04T22:54:09.545Z,56.54
2023-12-04T22:56:36.341Z,56.43
2023-12-04T22:59:03.001Z,56.47
2023-12-04T23:01:29.823Z,56.30
2023-12-04T23:03:56.642Z,56.77
2023-12-04T23:06:23.728Z,57.02
2023-12-04T23:08:50.608Z,56.85
2023-12-04T23:11:17.239Z,56.60
2023-12-04T23:13:44.875Z,57.12
2023-12-04T23:16:12.337Z,56.86
2023-12-04T23:18:39.023Z,57.34
2023-12-04T23:21:05.835Z,57.08
2023-12-04T23:23:32.760Z,57.05
2023-12-04T23:25:59.367Z,57.09
2023-12-04T23:28:26.011Z,57.40
2023-12-04T23:30:52.783Z,57.55
2023-12-04T23:33:19.599Z,57.69
2023-12-04T23:35:46.235Z,57.64
2023-12-04T23:38:12.934Z,57.34
2023-12-04T23:40:39.562Z,57.68
2023-12-04T23:43:06.177Z,57.28
2023-12-04T23:45:41.891Z,57.58
2023-12-04T23:48:12.141Z,57.47
2023-12-04T23:50:38.874Z,57.23
2023-12-04T23:53:05.467Z,57.47
2023-12-04T23:55:32.166Z,57.40
2023-12-04T23:57:58.870Z,57.66
